createdAt,value
2023-02-03T15:49:39.346Z,98775.97
2023-02-03T15:50:00.210Z,98779.28
2023-02-03T15:50:34.205Z,98783.84
2023-02-03T15:50:54.035Z,98766.44
2023-02-03T15:51:17.916Z,98778.69
2023-02-03T15:51:35.898Z,98774.16
2023-02-03T15:51:58.844Z,98778.91
2023-02-03T15:52:20.191Z,98793.19
2023-02-03T15:52:38.094Z,98793.56
2023-02-03T15:52:54.788Z,98783.41
2023-02-03T15:53:47.512Z,98793.78
2023-02-03T15:54:12.976Z,98766.44
2023-02-03T15:54:40.991Z,98801.47
2023-02-03T15:55:03.972Z,98795.06
2023-02-03T15:55:43.826Z,98806.44
2023-02-03T15:56:04.455Z,98794.00
2023-02-03T15:57:05.625Z,98787.78
2023-02-03T15:57:29.349Z,98796.91
2023-02-03T15:57:47.478Z,98794.63
2023-02-03T15:58:04.609Z,98797.13
2023-02-03T15:58:29.167Z,98783.69
2023-02-03T15:58:45.652Z,98805.44
2023-02-03T15:59:02.134Z,98785.75
2023-02-03T15:59:23.979Z,98788.22
2023-02-03T15:59:55.006Z,98800.03
2023-02-03T16:00:24.840Z,98783.66
2023-02-03T16:00:41.556Z,98774.56
2023-02-03T16:01:03.324Z,98786.56
2023-02-03T16:01:21.432Z,98783.44
2023-02-03T16:01:38.168Z,98787.78
2023-02-03T16:01:54.752Z,98796.50
2023-02-03T16:02:28.489Z,98774.56
2023-02-03T16:02:46.145Z,98783.88
2023-02-03T16:03:02.995Z,98790.31
2023-02-03T16:03:21.874Z,98770.84
2023-02-03T16:03:40.284Z,98770.22
2023-02-03T16:03:56.924Z,98769.97
2023-02-03T16:04:14.583Z,98789.25
2023-02-03T16:04:31.750Z,98783.66
2023-02-03T16:04:50.192Z,98777.84
2023-02-03T16:05:23.611Z,98769.19
2023-02-03T16:05:40.115Z,98760.06
2023-02-03T16:05:56.730Z,98784.91
2023-02-03T16:06:30.567Z,98760.91
2023-02-03T16:06:48.359Z,98775.81
2023-02-03T16:07:04.866Z,98779.31
2023-02-03T16:07:22.975Z,98782.44
2023-02-03T16:07:39.482Z,98773.53
2023-02-03T16:07:56.128Z,98779.13
2023-02-03T16:08:48.841Z,98780.78
2023-02-03T16:09:07.035Z,98784.50
2023-02-03T16:09:30.425Z,98774.78
2023-02-03T16:09:47.055Z,98781.19
2023-02-03T16:10:03.624Z,98779.13
2023-02-03T16:10:28.927Z,98779.53
2023-02-03T16:10:45.406Z,98781.59
2023-02-03T16:11:02.357Z,98779.53
2023-02-03T16:11:26.388Z,98764.59
2023-02-03T16:11:43.148Z,98778.31
2023-02-03T16:12:06.458Z,98776.66
2023-02-03T16:12:24.734Z,98768.78
2023-02-03T16:12:41.829Z,98773.53
2023-02-03T16:13:21.691Z,98775.38
2023-02-03T16:13:42.871Z,98774.34
2023-02-03T16:14:07.058Z,98768.53
2023-02-03T16:14:34.299Z,98768.75
2023-02-03T16:14:51.119Z,98752.59
2023-02-03T16:15:21.498Z,98762.31
2023-02-03T16:15:38.086Z,98766.47
2023-02-03T16:16:03.459Z,98765.03
2023-02-03T16:16:23.989Z,98766.06
2023-02-03T16:17:02.499Z,98765.25
2023-02-03T16:17:30.264Z,98764.81
2023-02-03T16:17:46.737Z,98767.28
2023-02-03T16:18:03.913Z,98757.59
2023-02-03T16:18:20.383Z,98767.50
2023-02-03T16:18:36.976Z,98770.22
2023-02-03T16:18:58.229Z,98775.19
2023-02-03T16:19:20.514Z,98766.91
2023-02-03T16:19:41.149Z,98772.91
2023-02-03T16:20:12.750Z,98773.09
2023-02-03T16:20:29.326Z,98777.25
2023-02-03T16:20:51.531Z,98780.97
2023-02-03T16:21:56.759Z,98787.81
2023-02-03T16:22:31.985Z,98788.03
2023-02-03T16:23:05.804Z,98772.91
2023-02-03T16:23:23.783Z,98789.25
2023-02-03T16:23:40.263Z,98776.22
2023-02-03T16:23:57.399Z,98791.56
2023-02-03T16:24:32.284Z,98793.22
2023-02-03T16:24:48.769Z,98790.72
2023-02-03T16:25:14.862Z,98779.31
2023-02-03T16:25:32.700Z,98773.31
2023-02-03T16:26:16.391Z,98773.53
2023-02-03T16:26:33.613Z,98748.88
2023-02-03T16:26:50.087Z,98782.66
2023-02-03T16:27:25.230Z,98777.88
2023-02-03T16:27:44.224Z,98765.84
2023-02-03T16:28:20.670Z,98773.75
2023-02-03T16:28:55.981Z,98772.91
2023-02-03T16:29:31.411Z,98762.53
2023-02-03T16:30:06.841Z,98748.28
2023-02-03T16:30:42.589Z,98751.78
2023-02-03T16:31:22.660Z,98766.50
2023-02-03T16:32:03.252Z,98771.25
2023-02-03T16:32:38.274Z,98729.00
2023-02-03T16:33:28.709Z,98760.28
2023-02-03T16:34:07.869Z,98768.34
2023-02-03T16:34:43.298Z,98761.72
2023-02-03T16:35:18.269Z,98766.28
2023-02-03T16:35:53.462Z,98759.66
2023-02-03T16:36:30.382Z,98766.50
2023-02-03T16:37:05.566Z,98758.22
2023-02-03T16:37:51.688Z,98774.56
2023-02-03T16:38:32.803Z,98775.81
2023-02-03T16:39:08.587Z,98778.69
2023-02-03T16:39:45.418Z,98765.03
2023-02-03T16:40:20.713Z,98757.59
2023-02-03T16:40:55.671Z,98799.84
2023-02-03T16:41:34.097Z,98758.84
2023-02-03T16:42:09.232Z,98764.41
2023-02-03T16:42:44.186Z,98787.41
2023-02-03T16:43:19.023Z,98795.69
2023-02-03T16:43:54.424Z,98789.47
2023-02-03T16:44:30.044Z,98781.41
2023-02-03T16:45:05.235Z,98772.72
2023-02-03T16:45:40.270Z,98801.06
2023-02-03T16:46:15.854Z,98794.03
2023-02-03T16:46:51.447Z,98792.34
2023-02-03T16:47:46.780Z,98766.09
2023-02-03T16:49:23.913Z,98769.38
2023-02-03T16:50:43.821Z,98781.78
2023-02-03T16:51:45.332Z,98773.31
2023-02-03T16:52:47.051Z,98785.31
2023-02-03T16:53:48.585Z,98780.31
2023-02-03T16:54:50.644Z,98781.81
2023-02-03T16:55:52.883Z,98800.22
2023-02-03T16:56:57.852Z,98795.69
2023-02-03T16:58:00.308Z,98781.34
2023-02-03T16:59:01.872Z,98781.91
2023-02-03T17:00:06.134Z,98783.00
2023-02-03T17:01:09.484Z,98775.69
2023-02-03T17:02:11.188Z,98782.56
2023-02-03T17:03:14.262Z,98786.31
2023-02-03T17:04:16.398Z,98774.16
2023-02-03T17:05:18.369Z,98772.66
2023-02-03T17:06:20.128Z,98780.72
2023-02-03T17:07:22.129Z,98775.50
2023-02-03T17:08:24.531Z,98790.28
2023-02-03T17:09:26.068Z,98798.28
2023-02-03T17:10:27.999Z,98784.41
2023-02-03T17:11:29.522Z,98772.63
2023-02-03T17:12:33.481Z,98792.13
2023-02-03T17:13:36.559Z,98793.19
2023-02-03T17:14:37.949Z,98783.94
2023-02-03T17:15:42.872Z,98788.75
2023-02-03T17:16:44.472Z,98787.97
2023-02-03T17:17:46.089Z,98786.69
2023-02-03T17:18:47.651Z,98798.03
2023-02-03T17:19:49.190Z,98791.22
2023-02-03T17:20:50.928Z,98782.34
2023-02-03T17:21:53.329Z,98784.03
2023-02-03T17:22:54.912Z,98771.84
2023-02-03T17:23:58.109Z,98803.13
2023-02-03T17:24:59.643Z,98804.97
2023-02-03T17:26:01.246Z,98760.47
2023-02-03T17:27:02.786Z,98797.34
2023-02-03T17:28:05.105Z,98786.97
2023-02-03T17:29:06.653Z,98805.78
2023-02-03T17:30:08.723Z,98805.56
2023-02-03T17:31:18.325Z,98782.84
2023-02-03T17:32:19.897Z,98815.56
2023-02-03T17:33:21.405Z,98805.41
2023-02-03T17:34:23.077Z,98804.34
2023-02-03T17:35:24.601Z,98803.75
2023-02-03T17:36:26.476Z,98801.03
2023-02-03T17:37:28.014Z,98809.03
2023-02-03T17:38:29.935Z,98808.69
2023-02-03T17:54:06.578Z,98808.00
2023-02-03T17:55:08.229Z,98825.44
2023-02-03T17:56:12.272Z,98819.78
2023-02-03T17:57:13.776Z,98822.31
2023-02-03T17:58:15.294Z,98820.16
2023-02-03T17:59:16.798Z,98827.13
2023-02-03T18:00:18.403Z,98838.78
2023-02-03T18:01:20.296Z,98813.28
2023-02-03T18:02:22.300Z,98837.03
2023-02-03T18:03:23.918Z,98824.13
2023-02-03T18:04:26.100Z,98834.47
2023-02-03T18:05:28.798Z,98838.63
2023-02-03T18:06:30.726Z,98832.75
2023-02-03T18:07:32.291Z,98833.19
2023-02-03T18:08:35.087Z,98834.06
2023-02-03T18:09:36.635Z,98839.66
2023-02-03T18:10:38.143Z,98834.69
2023-02-03T18:11:40.061Z,98831.53
2023-02-03T18:12:41.703Z,98820.94
2023-02-03T18:13:44.972Z,98836.91
2023-02-03T18:14:46.485Z,98841.84
2023-02-03T18:15:47.989Z,98833.56
2023-02-03T18:16:49.550Z,98830.41
2023-02-03T18:17:51.058Z,98836.69
2023-02-03T18:18:52.935Z,98834.44
2023-02-03T18:19:59.625Z,98836.91
2023-02-03T18:21:07.351Z,98843.72
2023-02-03T18:22:08.955Z,98838.47
2023-02-03T18:23:14.816Z,98824.53
2023-02-03T18:24:18.769Z,98833.19
2023-02-03T18:25:20.238Z,98842.81
2023-02-03T18:26:22.131Z,98836.88
2023-02-03T18:27:23.669Z,98844.50
2023-02-03T18:28:25.518Z,98806.78
2023-02-03T18:29:27.612Z,98833.72
2023-02-03T18:30:29.449Z,98837.59
2023-02-03T18:31:31.971Z,98844.19
2023-02-03T18:32:33.491Z,98842.31
2023-02-03T18:33:35.309Z,98840.97
2023-02-03T18:34:36.938Z,98856.34
2023-02-03T18:35:38.633Z,98853.16
2023-02-03T18:37:59.282Z,98853.19
2023-02-03T18:39:00.840Z,98861.25
2023-02-03T18:40:02.416Z,98860.16
2023-02-03T18:41:07.816Z,98859.53
2023-02-03T18:42:09.336Z,98854.91
2023-02-03T18:43:10.859Z,98867.16
2023-02-03T18:44:12.421Z,98856.97
2023-02-03T18:45:13.976Z,98860.44
2023-02-03T18:46:24.139Z,98860.88
2023-02-03T18:47:25.668Z,98864.38
2023-02-03T18:48:27.307Z,98867.88
2023-02-03T18:49:28.819Z,98861.00
2023-02-03T18:50:30.671Z,98856.22
2023-02-03T18:51:32.796Z,98847.94
2023-02-03T18:52:34.359Z,98843.75
2023-02-03T18:53:36.401Z,98854.56
2023-02-03T18:54:37.966Z,98854.06
2023-02-03T18:55:43.056Z,98849.47
2023-02-03T18:56:44.978Z,98858.09
2023-02-03T18:57:46.951Z,98859.50
2023-02-03T18:58:48.498Z,98844.88
2023-02-03T18:59:50.223Z,98843.53
2023-02-03T19:00:51.770Z,98849.94
2023-02-03T19:01:53.321Z,98867.38
2023-02-03T19:02:55.533Z,98863.63
2023-02-03T19:03:58.705Z,98878.13
2023-02-03T19:05:00.244Z,98873.31
2023-02-03T19:06:01.825Z,98868.81
2023-02-03T19:07:03.657Z,98860.50
2023-02-03T19:08:05.302Z,98867.50
2023-02-03T19:09:07.363Z,98874.38
2023-02-03T19:10:09.324Z,98868.59
2023-02-03T19:11:10.972Z,98877.06
2023-02-03T19:12:12.579Z,98885.97
2023-02-03T19:13:14.476Z,98875.81
2023-02-03T19:14:18.268Z,98884.94
2023-02-03T19:15:19.784Z,98893.63
2023-02-03T19:16:21.478Z,98875.69
2023-02-03T19:17:23.565Z,98895.84
2023-02-03T19:18:25.179Z,98891.47
2023-02-03T19:19:26.707Z,98878.31
2023-02-03T19:20:28.513Z,98886.63
2023-02-03T19:21:30.284Z,98892.03
2023-02-03T19:22:32.299Z,98889.31
2023-02-03T19:23:33.853Z,98880.59
2023-02-03T19:24:35.447Z,98895.97
2023-02-03T19:25:37.101Z,98912.81
2023-02-03T19:26:38.683Z,98896.03
2023-02-03T19:27:40.238Z,98893.22
2023-02-03T19:28:42.215Z,98910.44
2023-02-03T19:29:43.783Z,98909.38
2023-02-03T19:30:45.521Z,98903.16
2023-02-03T19:31:47.169Z,98906.50
2023-02-03T19:32:48.818Z,98919.84
2023-02-03T19:33:50.582Z,98893.03
2023-02-03T19:34:52.088Z,98912.09
2023-02-03T19:35:53.620Z,98901.94
2023-02-03T19:36:55.124Z,98900.31
2023-02-03T19:37:56.685Z,98918.75
2023-02-03T19:38:58.227Z,98915.72
2023-02-03T19:39:59.783Z,98927.78
2023-02-03T19:41:02.200Z,98925.47
2023-02-03T19:42:03.810Z,98920.28
2023-02-03T19:43:05.437Z,98930.69
2023-02-03T19:44:07.106Z,98934.97
2023-02-03T19:45:08.913Z,98928.50
2023-02-03T19:46:10.845Z,98936.56
2023-02-03T19:47:12.382Z,98931.34
2023-02-03T19:48:13.857Z,98946.06
2023-02-03T19:49:15.346Z,98941.06
2023-02-03T19:50:17.140Z,98947.09
2023-02-03T19:51:18.654Z,98952.91
2023-02-03T19:52:20.186Z,98930.69
2023-02-03T19:53:21.740Z,98967.03
2023-02-03T19:54:23.216Z,98954.31
2023-02-03T19:55:30.550Z,98953.31
2023-02-03T19:56:32.069Z,98953.22
2023-02-03T19:57:33.568Z,98955.94
2023-02-03T19:58:35.098Z,98950.47
2023-02-03T19:59:36.679Z,98963.78
2023-02-03T20:00:38.218Z,98964.28
2023-02-03T20:01:39.872Z,98933.28
2023-02-03T20:02:41.939Z,98962.66
2023-02-03T20:03:43.875Z,98971.75
2023-02-03T20:04:45.451Z,98965.53
2023-02-03T20:05:47.524Z,98980.06
2023-02-03T20:06:49.064Z,98975.25
2023-02-03T20:07:52.491Z,98979.16
2023-02-03T20:08:56.235Z,98985.38
2023-02-03T20:09:57.743Z,98974.00
2023-02-03T20:10:59.353Z,98991.34
2023-02-03T20:12:01.031Z,98989.13
2023-02-03T20:13:02.539Z,98985.84
2023-02-03T20:14:04.077Z,98976.84
2023-02-03T20:15:06.031Z,98983.09
2023-02-03T20:16:07.565Z,98981.63
2023-02-03T20:17:09.240Z,98981.34
2023-02-03T20:18:10.743Z,98978.00
2023-02-03T20:19:12.314Z,98988.31
2023-02-03T20:20:13.846Z,99000.75
2023-02-03T20:21:15.400Z,98989.75
2023-02-03T20:22:16.908Z,99011.09
2023-02-03T20:23:18.526Z,98998.69
2023-02-03T20:24:20.040Z,99011.81
2023-02-03T20:25:21.560Z,99002.41
2023-02-03T20:26:23.101Z,99007.41
2023-02-03T20:27:25.574Z,99017.38
2023-02-03T20:28:27.307Z,99016.94
2023-02-03T20:29:28.876Z,99018.56
2023-02-03T20:30:30.677Z,99013.63
2023-02-03T20:31:32.681Z,99025.84
2023-02-03T20:32:34.263Z,99024.47
2023-02-03T20:33:35.839Z,99031.06
2023-02-03T20:34:37.467Z,99033.56
2023-02-03T20:35:39.504Z,99032.78
2023-02-03T20:36:41.067Z,99049.22
2023-02-03T20:37:43.455Z,99039.00
2023-02-03T20:38:45.423Z,99034.81
2023-02-03T20:39:46.985Z,99030.88
2023-02-03T20:40:49.180Z,99031.31
2023-02-03T20:41:50.694Z,99031.50
2023-02-03T20:42:53.119Z,99019.44
2023-02-03T20:43:54.859Z,99036.06
2023-02-03T20:44:56.455Z,99024.44
2023-02-03T20:45:58.303Z,99034.66
2023-02-03T20:46:59.875Z,99023.69
2023-02-03T20:48:01.449Z,99041.31
2023-02-03T20:49:03.005Z,99032.56
2023-02-03T20:50:18.147Z,99037.78
2023-02-03T20:51:21.048Z,99034.47
2023-02-03T20:52:22.594Z,99035.69
2023-02-03T20:53:25.465Z,99032.53
2023-02-03T20:54:26.965Z,99019.91
2023-02-03T20:55:29.030Z,99043.97
2023-02-03T20:56:30.553Z,99041.88
2023-02-03T20:57:32.641Z,99034.41
2023-02-03T20:58:34.987Z,99041.06
2023-02-03T20:59:37.177Z,99041.47
2023-02-03T21:00:39.331Z,99040.88
2023-02-03T21:01:40.895Z,99021.84
2023-02-03T21:03:01.355Z,99019.94
2023-02-03T21:04:21.693Z,99042.72
2023-02-03T21:05:25.321Z,99045.19
2023-02-03T21:06:27.676Z,99046.00
2023-02-03T21:07:32.365Z,99036.91
2023-02-03T21:08:33.920Z,99054.13
2023-02-03T21:09:35.429Z,99047.06
2023-02-03T21:10:37.012Z,99039.59
2023-02-03T21:11:38.502Z,99036.91
2023-02-03T21:12:40.012Z,99057.19
2023-02-03T21:13:43.553Z,99055.47
2023-02-03T21:14:48.809Z,99051.31
2023-02-03T21:15:51.375Z,99049.22
2023-02-03T21:16:54.595Z,99061.28
2023-02-03T21:17:56.119Z,99049.69
2023-02-03T21:19:02.835Z,99058.22
2023-02-03T21:20:10.647Z,99038.00
2023-02-03T21:21:16.196Z,99061.00
2023-02-03T21:22:23.768Z,99060.34
2023-02-03T21:23:31.667Z,99051.03
2023-02-03T21:24:34.339Z,99063.66
2023-02-03T21:25:35.978Z,99064.06
2023-02-03T21:26:37.562Z,99026.59
2023-02-03T21:27:39.148Z,99059.91
2023-02-03T21:28:41.272Z,99057.81
2023-02-03T21:29:42.784Z,99068.91
2023-02-03T21:30:44.452Z,99061.06
2023-02-03T21:31:46.066Z,99070.78
2023-02-03T21:32:47.565Z,99062.47
2023-02-03T21:33:49.077Z,99051.22
2023-02-03T21:34:50.675Z,99065.34
2023-02-03T21:35:52.177Z,99061.19
2023-02-03T21:36:53.786Z,99061.41
2023-02-03T21:38:02.049Z,99069.34
2023-02-03T21:39:19.987Z,99068.50
2023-02-03T21:40:26.518Z,99067.22
2023-02-03T21:41:32.744Z,99072.84
2023-02-03T21:42:43.321Z,99079.72
2023-02-03T21:43:55.386Z,99078.91
2023-02-03T21:44:57.143Z,99081.81
2023-02-03T21:45:58.766Z,99078.47
2023-02-03T21:47:05.010Z,99078.88
2023-02-03T21:48:28.348Z,99072.66
2023-02-03T21:49:29.884Z,99091.16
2023-02-03T21:50:41.155Z,99074.13
2023-02-03T21:51:42.783Z,99097.78
2023-02-03T21:52:44.276Z,99092.34
2023-02-03T21:53:53.229Z,99084.66
2023-02-03T21:54:54.719Z,99092.91
2023-02-03T21:55:56.650Z,99105.56
2023-02-03T21:56:58.278Z,99098.91
2023-02-03T21:57:59.775Z,99102.69
2023-02-03T21:59:01.319Z,99109.19
2023-02-03T22:00:02.797Z,99110.06
2023-02-03T22:01:06.327Z,99110.47
2023-02-03T22:02:37.406Z,99107.06
2023-02-03T22:03:40.612Z,99100.81
2023-02-03T22:04:42.231Z,99097.91
2023-02-03T22:05:43.720Z,99108.31
2023-02-03T22:06:49.056Z,99102.09
2023-02-03T22:07:50.563Z,99112.88
2023-02-03T22:08:54.038Z,99097.56
2023-02-03T22:09:55.588Z,99102.47
2023-02-03T22:10:57.110Z,99110.22
2023-02-03T22:12:00.473Z,99108.31
2023-02-03T22:13:02.814Z,99103.72
2023-02-03T22:14:04.389Z,99101.22
2023-02-03T22:15:06.432Z,99105.00
2023-02-03T22:16:08.205Z,99108.53
2023-02-03T22:17:12.799Z,99110.03
2023-02-03T22:18:15.498Z,99110.22
2023-02-03T22:19:17.620Z,99095.72
2023-02-03T22:20:19.372Z,99100.06
2023-02-03T22:21:21.037Z,99092.63
2023-02-03T22:22:22.562Z,99108.16
2023-02-03T22:23:24.055Z,99099.25
2023-02-03T22:24:25.543Z,99102.38
2023-02-03T22:25:27.033Z,99110.50
2023-02-03T22:26:28.930Z,99105.31
2023-02-03T22:27:31.348Z,99110.88
2023-02-03T22:28:32.963Z,99097.19
2023-02-03T22:29:34.455Z,99110.03
2023-02-03T22:30:36.072Z,99120.44
2023-02-03T22:31:37.776Z,99109.19
2023-02-03T22:32:39.338Z,99108.16
2023-02-03T22:33:41.245Z,99113.59
2023-02-03T22:34:42.748Z,99111.69
2023-02-03T22:35:44.374Z,99110.66
2023-02-03T22:36:45.875Z,99105.28
2023-02-03T22:37:47.688Z,99103.00
2023-02-03T22:38:49.173Z,99119.19
2023-02-03T22:39:50.653Z,99112.69
2023-02-03T22:40:52.832Z,99119.59
2023-02-03T22:41:54.310Z,99118.38
2023-02-03T22:42:56.078Z,99120.00
2023-02-03T22:43:57.609Z,99123.34
2023-02-03T22:44:59.105Z,99117.72
2023-02-03T22:46:01.907Z,99124.97
2023-02-03T22:47:03.666Z,99120.00
2023-02-03T22:48:05.337Z,99112.13
2023-02-03T22:49:06.960Z,99120.84
2023-02-03T22:50:10.549Z,99125.41
2023-02-03T22:51:12.063Z,99126.66
2023-02-03T22:52:13.591Z,99119.81
2023-02-03T22:53:15.135Z,99122.09
2023-02-03T22:54:16.670Z,99125.63
2023-02-03T22:55:18.188Z,99125.81
2023-02-03T22:56:20.056Z,99131.66
2023-02-03T22:57:21.547Z,99131.84
2023-02-03T22:58:23.051Z,99129.56
2023-02-03T22:59:24.563Z,99137.84
2023-02-03T23:00:26.136Z,99145.75
2023-02-03T23:01:27.730Z,99133.50
2023-02-03T23:02:29.254Z,99137.47
2023-02-03T23:03:32.500Z,99125.84
2023-02-03T23:04:34.446Z,99138.28
2023-02-03T23:05:36.048Z,99123.31
2023-02-03T23:06:37.531Z,99147.59
2023-02-03T23:07:39.967Z,99134.50
2023-02-03T23:08:41.512Z,99143.66
2023-02-03T23:09:43.021Z,99144.06
2023-02-03T23:10:44.558Z,99142.19
2023-02-03T23:11:46.052Z,99143.66
2023-02-03T23:12:47.606Z,99145.31
2023-02-03T23:13:49.560Z,99143.66
2023-02-03T23:14:51.138Z,99138.69
2023-02-03T23:15:53.111Z,99135.13
2023-02-03T23:16:54.607Z,99142.03
2023-02-03T23:17:56.105Z,99156.31
2023-02-03T23:18:57.710Z,99156.16
2023-02-03T23:19:59.211Z,99163.38
2023-02-03T23:21:00.712Z,99156.50
2023-02-03T23:22:02.298Z,99155.69
2023-02-03T23:23:03.867Z,99156.72
2023-02-03T23:24:05.683Z,99152.38
2023-02-03T23:25:07.531Z,99166.22
2023-02-03T23:26:09.133Z,99160.22
2023-02-03T23:27:10.704Z,99149.84
2023-02-03T23:28:12.229Z,99157.75
2023-02-03T23:29:13.714Z,99155.66
2023-02-03T23:30:15.432Z,99164.16
2023-02-03T23:31:17.960Z,99165.84
2023-02-03T23:32:19.550Z,99168.56
2023-02-03T23:33:21.069Z,99174.31
2023-02-03T23:34:40.777Z,99172.66
2023-02-03T23:35:49.314Z,99178.91
2023-02-03T23:36:50.882Z,99177.69
2023-02-03T23:37:52.439Z,99183.91
2023-02-03T23:38:53.979Z,99186.59
2023-02-03T23:39:56.441Z,99190.34
2023-02-03T23:40:57.979Z,99182.03
2023-02-03T23:41:59.590Z,99183.09
2023-02-03T23:43:01.101Z,99191.81
2023-02-03T23:44:02.667Z,99180.19
2023-02-03T23:45:08.100Z,99175.59
2023-02-03T23:46:09.729Z,99180.59
2023-02-03T23:47:11.402Z,99177.28
2023-02-03T23:48:13.220Z,99182.50
2023-02-03T23:49:14.778Z,99170.44
2023-02-03T23:50:16.758Z,99171.28
2023-02-03T23:51:18.667Z,99180.63
2023-02-03T23:52:20.167Z,99183.94
2023-02-03T23:53:21.647Z,99189.13
2023-02-03T23:54:23.174Z,99183.31
2023-02-03T23:55:24.851Z,99177.28
2023-02-03T23:56:26.458Z,99181.84
2023-02-03T23:57:27.946Z,99184.34
2023-02-03T23:58:29.518Z,99183.50
2023-02-03T23:59:31.206Z,99187.22
